Time;durP1;ratioP1;P1;durP2;ratioP2;P2;SDS_P1;SDS_P2;PMS_P1;PMS_P2;Temp;Humidity;BMP_temperature;BMP_pressure;BME280_temperature;BME280_humidity;BME280_pressure;Samples;Min_cycle;Max_cycle;Signal;HPM_P1;HPM_P2
2022/02/28 00:01:31;;;;;;;6.70;4.40;;;;;;;5.68;73.31;100670.13;5035098;28;20030;-74
2022/02/28 00:03:59;;;;;;;7.93;6.10;;;;;;;5.63;73.63;100681.28;5035292;28;20037;-74
2022/02/28 00:06:30;;;;;;;10.10;6.18;;;;;;;5.71;72.95;100672.25;5035024;28;20033;-74
2022/02/28 00:08:58;;;;;;;5.95;3.50;;;;;;;5.73;73.46;100664.44;5034902;28;20124;-74
2022/02/28 00:11:26;;;;;;;6.85;3.80;;;;;;;5.89;73.71;100666.78;5034947;28;20033;-74
2022/02/28 00:13:57;;;;;;;4.43;3.00;;;;;;;5.85;73.26;100671.31;5034992;28;20091;-74
2022/02/28 00:16:30;;;;;;;7.65;3.78;;;;;;;6.03;73.02;100675.81;5035008;28;20036;-74
2022/02/28 00:18:58;;;;;;;6.22;3.75;;;;;;;6.04;73.26;100681.00;5034871;28;20116;-74
2022/02/28 00:21:23;;;;;;;9.07;4.20;;;;;;;6.06;72.79;100666.88;5035046;28;20080;-74
2022/02/28 00:23:52;;;;;;;8.45;4.05;;;;;;;6.18;72.21;100667.09;5035002;28;20037;-74
2022/02/28 00:26:20;;;;;;;5.45;3.40;;;;;;;6.14;72.95;100671.63;5035219;28;20038;-74
2022/02/28 00:28:46;;;;;;;5.20;3.42;;;;;;;6.25;72.43;100670.19;5037235;28;20068;-74
2022/02/28 00:31:15;;;;;;;9.02;4.47;;;;;;;6.27;72.68;100676.19;5035992;28;20475;-75
2022/02/28 00:33:40;;;;;;;5.32;4.28;;;;;;;6.26;73.28;100670.97;5034375;28;20482;-75
2022/02/28 00:36:11;;;;;;;5.78;3.85;;;;;;;6.28;73.52;100672.31;5034989;28;20064;-74
2022/02/28 00:38:37;;;;;;;6.05;4.95;;;;;;;6.37;72.69;100671.50;5034626;28;20490;-74
2022/02/28 00:41:07;;;;;;;8.20;4.97;;;;;;;6.44;72.60;100674.59;5034276;28;20476;-74
2022/02/28 00:43:37;;;;;;;7.05;4.80;;;;;;;6.33;72.85;100673.25;5034067;28;20045;-74
2022/02/28 00:46:05;;;;;;;10.80;5.80;;;;;;;6.30;72.88;100678.31;5034258;28;20018;-74
2022/02/28 00:48:31;;;;;;;16.38;7.60;;;;;;;6.34;72.94;100674.88;5034187;28;20044;-74
2022/02/28 00:50:56;;;;;;;16.45;8.98;;;;;;;6.41;72.62;100661.44;5034110;28;20026;-74
2022/02/28 00:53:24;;;;;;;16.63;7.68;;;;;;;6.41;72.52;100672.47;5034086;28;20056;-74
2022/02/28 00:55:50;;;;;;;9.00;5.70;;;;;;;6.35;72.31;100669.06;5033728;28;20021;-75
2022/02/28 00:58:18;;;;;;;7.15;4.82;;;;;;;6.37;71.93;100677.03;5034352;28;20044;-74
2022/02/28 01:00:46;;;;;;;9.73;6.18;;;;;;;6.37;71.96;100685.31;5033931;28;20490;-74
2022/02/28 01:03:14;;;;;;;7.95;5.25;;;;;;;6.38;71.60;100692.47;5033945;28;20120;-74
2022/02/28 01:05:42;;;;;;;9.52;6.20;;;;;;;6.45;71.90;100687.28;5009462;28;20103;-74
2022/02/28 01:08:12;;;;;;;9.10;5.78;;;;;;;6.44;72.09;100689.22;5035036;28;20084;-74
2022/02/28 01:10:43;;;;;;;10.80;6.07;;;;;;;6.36;72.75;100681.75;5017817;28;20025;-74
2022/02/28 01:13:11;;;;;;;8.32;5.78;;;;;;;6.27;72.96;100676.19;5017356;28;20033;-74
2022/02/28 01:15:38;;;;;;;9.18;5.20;;;;;;;6.26;72.33;100676.50;5017711;28;20025;-74
2022/02/28 01:18:08;;;;;;;5.38;4.28;;;;;;;6.26;73.10;100682.84;5017155;28;20029;-74
2022/02/28 01:20:35;;;;;;;4.80;3.55;;;;;;;6.21;72.78;100671.94;5034989;28;20029;-74
2022/02/28 01:23:06;;;;;;;6.55;4.38;;;;;;;6.28;72.51;100668.69;5017092;28;20084;-74
2022/02/28 01:25:34;;;;;;;5.82;4.50;;;;;;;6.22;72.37;100665.28;5017272;28;20021;-74
2022/02/28 01:28:02;;;;;;;4.38;3.58;;;;;;;6.08;70.78;100661.84;5017317;28;20139;-74
2022/02/28 01:30:27;;;;;;;5.10;3.30;;;;;;;6.03;70.63;100659.25;5016902;28;20021;-74
2022/02/28 01:32:55;;;;;;;3.30;3.03;;;;;;;6.00;71.06;100657.09;5016642;28;20052;-74
2022/02/28 01:35:25;;;;;;;14.75;8.30;;;;;;;5.76;71.08;100625.16;5017401;28;20033;-74
2022/02/28 01:37:58;;;;;;;8.88;6.20;;;;;;;6.14;70.72;100660.56;5016749;28;20029;-73
2022/02/28 01:40:24;;;;;;;6.80;4.90;;;;;;;6.12;70.22;100656.47;5016709;28;20025;-73
2022/02/28 01:42:52;;;;;;;9.40;5.00;;;;;;;6.04;71.81;100664.44;5015963;28;20120;-74
2022/02/28 01:45:22;;;;;;;5.90;4.55;;;;;;;6.00;71.85;100662.63;5017175;28;20383;-74
2022/02/28 01:47:52;;;;;;;4.50;3.90;;;;;;;5.82;72.50;100655.41;5016604;28;20026;-73
2022/02/28 01:50:20;;;;;;;4.30;3.30;;;;;;;5.79;72.29;100648.56;5032993;28;20029;-74
2022/02/28 01:52:48;;;;;;;5.03;4.00;;;;;;;5.83;73.34;100657.03;5016469;28;20494;-74
2022/02/28 01:55:21;;;;;;;5.80;4.18;;;;;;;5.72;72.62;100651.78;5016794;28;20029;-74
2022/02/28 01:57:47;;;;;;;4.20;3.70;;;;;;;5.67;73.29;100648.34;5016451;28;20026;-74
2022/02/28 02:00:19;;;;;;;4.55;3.33;;;;;;;5.66;73.01;100655.81;5033377;28;20353;-73
2022/02/28 02:02:44;;;;;;;9.90;4.63;;;;;;;5.71;73.53;100660.41;5034104;28;20442;-73
2022/02/28 02:05:13;;;;;;;10.25;4.97;;;;;;;5.73;73.78;100660.88;5016839;28;20112;-74
2022/02/28 02:07:41;;;;;;;8.07;5.07;;;;;;;5.64;73.25;100665.53;5016579;28;20033;-74
2022/02/28 02:10:09;;;;;;;34.40;14.23;;;;;;;5.55;73.56;100657.25;5034295;28;20089;-73
2022/02/28 02:12:38;;;;;;;14.15;6.35;;;;;;;5.56;73.35;100674.63;5016502;28;20091;-73
2022/02/28 02:15:09;;;;;;;11.13;6.93;;;;;;;5.57;74.08;100677.03;5016974;28;20608;-74
2022/02/28 02:17:36;;;;;;;12.13;6.28;;;;;;;5.72;74.20;100668.34;5016129;28;20040;-74
2022/02/28 02:20:31;;;;;;;7.20;5.05;;;;;;;5.74;73.86;100674.34;5016359;28;20092;-73
2022/02/28 02:23:01;;;;;;;4.85;3.90;;;;;;;5.78;73.79;100667.06;5016141;28;20124;-74
2022/02/28 02:25:28;;;;;;;8.35;4.88;;;;;;;5.73;74.17;100660.88;5016107;28;20112;-73
2022/02/28 02:27:53;;;;;;;5.88;4.55;;;;;;;5.74;74.52;100665.25;5016278;28;20053;-74
2022/02/28 02:30:22;;;;;;;5.70;4.38;;;;;;;5.81;73.20;100667.59;5016021;28;20432;-74
2022/02/28 02:32:50;;;;;;;9.25;4.85;;;;;;;5.73;74.47;100658.13;5015995;28;20058;-73
2022/02/28 02:35:18;;;;;;;5.95;4.70;;;;;;;5.71;74.61;100655.69;5016473;28;20032;-73
2022/02/28 02:37:46;;;;;;;5.05;4.53;;;;;;;5.76;74.15;100657.50;5015951;28;20112;-73
2022/02/28 02:40:12;;;;;;;6.65;4.80;;;;;;;5.74;73.92;100676.31;5015758;28;20030;-73
2022/02/28 02:42:41;;;;;;;6.22;4.25;;;;;;;5.71;73.51;100669.50;5016540;28;20432;-74
2022/02/28 02:45:07;;;;;;;5.53;4.28;;;;;;;5.59;73.93;100672.00;5033076;28;20068;-74
2022/02/28 02:47:33;;;;;;;6.35;4.50;;;;;;;5.54;74.13;100672.19;5018514;28;20025;-74
2022/02/28 02:50:01;;;;;;;6.82;4.93;;;;;;;5.45;75.58;100676.84;5018767;28;20517;-74
2022/02/28 02:52:31;;;;;;;5.43;4.47;;;;;;;5.39;75.05;100680.84;5036164;28;20463;-74
2022/02/28 02:54:59;;;;;;;7.22;4.75;;;;;;;5.43;75.49;100679.06;5019866;28;20112;-74
2022/02/28 02:57:30;;;;;;;6.45;4.35;;;;;;;5.50;75.52;100677.50;5019799;28;20041;-74
2022/02/28 03:00:09;;;;;;;8.93;4.63;;;;;;;5.43;75.61;100682.69;5019690;28;20533;-74
2022/02/28 03:02:39;;;;;;;8.80;5.13;;;;;;;5.41;75.63;100684.91;5019853;28;20033;-73
2022/02/28 03:05:08;;;;;;;7.82;4.75;;;;;;;5.39;74.90;100675.34;5019597;28;20028;-74
2022/02/28 03:07:36;;;;;;;5.38;4.18;;;;;;;5.36;74.51;100675.97;5019626;28;20053;-74
2022/02/28 03:10:04;;;;;;;4.32;3.75;;;;;;;5.33;75.23;100682.94;5038034;28;20462;-73
2022/02/28 03:12:32;;;;;;;4.90;3.95;;;;;;;5.37;75.56;100677.59;5019975;28;20073;-73
2022/02/28 03:15:03;;;;;;;6.32;3.65;;;;;;;5.38;75.29;100679.22;5020186;28;20120;-73
2022/02/28 03:17:31;;;;;;;6.13;4.05;;;;;;;5.35;75.44;100680.66;5020778;28;20067;-74
2022/02/28 03:20:03;;;;;;;4.30;3.75;;;;;;;5.38;74.56;100679.22;5021421;28;20460;-73
2022/02/28 03:22:33;;;;;;;51.97;23.42;;;;;;;5.26;74.17;100680.59;5019322;28;20120;-74
2022/02/28 03:24:59;;;;;;;111.95;44.30;;;;;;;5.29;74.92;100676.41;5037238;28;20021;-73
2022/02/28 03:27:30;;;;;;;224.77;90.25;;;;;;;5.28;74.25;100671.22;5019446;28;20029;-74
2022/02/28 03:29:58;;;;;;;186.38;76.38;;;;;;;5.25;74.32;100665.19;5019101;28;20029;-74
2022/02/28 03:32:24;;;;;;;126.78;52.22;;;;;;;5.23;74.78;100678.50;5018874;28;20029;-73
2022/02/28 03:34:51;;;;;;;93.18;41.88;;;;;;;5.25;73.84;100687.25;5019623;28;20033;-73
2022/02/28 03:37:17;;;;;;;90.47;41.95;;;;;;;5.14;74.48;100688.66;5019010;28;20044;-74
2022/02/28 03:39:45;;;;;;;61.20;33.00;;;;;;;5.12;74.43;100677.13;5018958;28;20029;-73
2022/02/28 03:42:14;;;;;;;35.35;22.20;;;;;;;5.12;74.86;100674.38;5019179;28;20029;-74
2022/02/28 03:44:43;;;;;;;22.38;13.93;;;;;;;5.08;74.57;100689.09;5036621;28;20017;-74
2022/02/28 03:47:09;;;;;;;18.38;10.35;;;;;;;5.08;73.92;100680.81;5018831;28;20037;-74
2022/02/28 03:49:39;;;;;;;13.18;8.02;;;;;;;5.08;74.35;100678.06;5018645;28;20045;-74
2022/02/28 03:52:10;;;;;;;13.80;7.05;;;;;;;5.09;74.41;100686.00;5019017;28;20383;-73
2022/02/28 03:54:41;;;;;;;12.63;6.47;;;;;;;5.15;74.16;100678.41;5019263;28;20060;-74
2022/02/28 03:57:09;;;;;;;14.45;8.43;;;;;;;5.13;74.22;100676.00;5018664;28;20026;-73
2022/02/28 03:59:34;;;;;;;14.43;7.03;;;;;;;5.14;74.18;100674.84;5018595;28;20068;-73
2022/02/28 04:02:03;;;;;;;13.35;7.45;;;;;;;5.16;74.36;100693.84;5018563;28;20061;-73
2022/02/28 04:04:30;;;;;;;10.43;6.18;;;;;;;5.24;74.18;100691.16;5018230;28;20436;-73
2022/02/28 04:06:56;;;;;;;10.45;6.43;;;;;;;5.17;73.71;100690.78;5018490;28;20018;-73
2022/02/28 04:09:22;;;;;;;7.65;6.07;;;;;;;5.13;72.97;100687.03;5018401;28;20128;-73
2022/02/28 04:11:50;;;;;;;152.05;58.20;;;;;;;5.26;72.29;100688.06;5018667;28;20038;-73
2022/02/28 04:14:16;;;;;;;27.77;15.07;;;;;;;5.27;72.02;100689.69;5042659;28;20033;-73
2022/02/28 04:16:44;;;;;;;141.93;71.35;;;;;;;5.26;71.56;100677.84;5038085;28;20031;-75
2022/02/28 04:19:14;;;;;;;66.82;35.65;;;;;;;5.33;71.24;100674.66;5038039;28;20112;-73
2022/02/28 04:21:42;;;;;;;40.83;20.55;;;;;;;5.31;70.46;100678.84;5055539;28;20100;-73
2022/02/28 04:24:12;;;;;;;22.48;12.90;;;;;;;5.23;70.72;100684.00;5038007;28;20040;-73
2022/02/28 04:26:40;;;;;;;18.17;8.80;;;;;;;5.20;70.64;100683.81;5037141;28;20476;-73
2022/02/28 04:29:06;;;;;;;11.82;7.05;;;;;;;5.25;70.18;100686.44;5034459;28;20022;-73
2022/02/28 04:31:33;;;;;;;14.18;7.55;;;;;;;5.26;70.78;100677.84;5018046;28;20116;-73
2022/02/28 04:34:04;;;;;;;8.82;4.63;;;;;;;5.38;68.79;100682.81;5017584;28;20053;-73
2022/02/28 04:36:32;;;;;;;4.80;3.58;;;;;;;5.33;68.59;100682.94;5017899;28;20091;-73
2022/02/28 04:38:58;;;;;;;6.22;4.45;;;;;;;5.39;68.79;100681.66;5018458;28;20065;-73
2022/02/28 04:41:24;;;;;;;5.35;4.57;;;;;;;5.42;68.77;100674.69;5034203;28;20525;-73
2022/02/28 04:43:51;;;;;;;9.13;4.95;;;;;;;5.43;68.64;100677.16;5017795;28;20061;-73
2022/02/28 04:46:19;;;;;;;10.27;6.70;;;;;;;5.45;69.73;100679.59;5017807;28;20032;-73
2022/02/28 04:48:48;;;;;;;11.27;8.63;;;;;;;5.44;70.38;100680.72;5017680;28;20025;-73
2022/02/28 04:51:16;;;;;;;12.13;6.93;;;;;;;5.33;70.42;100691.22;5017777;28;20029;-73
2022/02/28 04:53:44;;;;;;;19.10;8.80;;;;;;;5.19;70.36;100688.53;5018216;28;20036;-73
2022/02/28 04:56:15;;;;;;;12.45;6.20;;;;;;;5.18;70.94;100692.41;5034336;28;20120;-74
2022/02/28 04:58:40;;;;;;;9.93;6.45;;;;;;;5.17;71.32;100681.69;5028629;28;20032;-73
2022/02/28 05:01:08;;;;;;;12.25;5.85;;;;;;;5.30;70.98;100689.06;5037171;28;20036;-73
2022/02/28 05:03:37;;;;;;;10.85;5.38;;;;;;;5.30;72.12;100688.25;5037220;28;20538;-74
2022/02/28 05:06:05;;;;;;;7.40;5.80;;;;;;;5.32;70.19;100691.50;5037100;28;20025;-74
2022/02/28 05:08:31;;;;;;;10.68;5.35;;;;;;;5.12;70.17;100693.66;5037121;28;20036;-74
2022/02/28 05:11:01;;;;;;;11.05;6.20;;;;;;;5.13;71.39;100695.28;5024966;28;20041;-73
2022/02/28 05:13:33;;;;;;;7.15;5.45;;;;;;;5.07;71.78;100680.00;4997570;28;20032;-74
2022/02/28 05:16:03;;;;;;;9.10;5.50;;;;;;;5.04;70.57;100677.88;4997816;28;20030;-73
2022/02/28 05:18:31;;;;;;;14.52;5.85;;;;;;;4.88;70.32;100680.19;4997995;28;20485;-73
2022/02/28 05:20:59;;;;;;;7.45;5.30;;;;;;;4.78;69.98;100687.88;4997294;28;20119;-73
2022/02/28 05:23:30;;;;;;;10.32;4.25;;;;;;;4.91;69.42;100692.53;4997379;28;20192;-74
2022/02/28 05:26:01;;;;;;;5.40;4.45;;;;;;;4.88;69.44;100695.91;4997285;28;20045;-73
2022/02/28 05:28:31;;;;;;;8.85;3.95;;;;;;;4.89;69.27;100689.25;4997855;28;20107;-73
2022/02/28 05:30:57;;;;;;;9.70;4.65;;;;;;;4.93;68.77;100690.28;4997240;28;20088;-74
2022/02/28 05:33:23;;;;;;;6.45;4.88;;;;;;;4.94;68.52;100698.22;4996837;28;20045;-73
2022/02/28 05:35:50;;;;;;;8.60;5.28;;;;;;;5.03;67.27;100687.28;4997109;28;20041;-74
2022/02/28 05:38:21;;;;;;;7.65;4.70;;;;;;;5.02;67.68;100688.41;4997414;28;20396;-74
2022/02/28 05:40:47;;;;;;;7.05;3.65;;;;;;;5.13;66.71;100687.03;4997241;28;20436;-74
2022/02/28 05:43:13;;;;;;;7.63;4.45;;;;;;;5.19;66.50;100699.56;4997020;28;20128;-74
2022/02/28 05:45:38;;;;;;;5.47;3.83;;;;;;;5.34;65.83;100689.28;4997342;28;20026;-73
2022/02/28 05:48:08;;;;;;;5.57;4.20;;;;;;;5.44;65.47;100689.00;4997550;28;20550;-73
2022/02/28 05:50:38;;;;;;;8.57;5.05;;;;;;;5.45;64.72;100682.34;4994084;28;20416;-74
2022/02/28 05:53:04;;;;;;;8.57;5.47;;;;;;;5.46;64.39;100682.03;4997094;28;20400;-73
2022/02/28 05:55:34;;;;;;;11.13;5.95;;;;;;;5.60;64.17;100692.19;4996768;28;20033;-73
2022/02/28 05:57:59;;;;;;;11.70;5.63;;;;;;;5.74;63.30;100688.16;4996790;28;20032;-74
2022/02/28 06:00:25;;;;;;;7.80;5.40;;;;;;;5.81;63.02;100692.44;4997020;28;20033;-73
2022/02/28 06:02:56;;;;;;;7.97;4.90;;;;;;;5.84;62.91;100697.31;4997571;28;20112;-73
2022/02/28 06:05:24;;;;;;;6.72;4.95;;;;;;;5.91;61.84;100681.09;4997483;28;20092;-74
2022/02/28 06:07:55;;;;;;;4.75;3.28;;;;;;;5.97;62.23;100690.91;4998401;28;20026;-73
2022/02/28 06:10:24;;;;;;;6.65;3.40;;;;;;;6.02;62.55;100693.53;4998029;28;20033;-73
2022/02/28 06:12:52;;;;;;;4.97;3.85;;;;;;;6.07;62.01;100690.59;4998475;28;20034;-73
2022/02/28 06:15:23;;;;;;;3.63;2.60;;;;;;;6.18;62.01;100703.00;4999183;28;20022;-74
2022/02/28 06:17:54;;;;;;;9.80;4.13;;;;;;;6.28;61.11;100702.72;4999841;28;20053;-74
2022/02/28 06:20:20;;;;;;;8.35;4.82;;;;;;;6.32;60.57;100696.53;4999086;28;20460;-73
2022/02/28 06:22:49;;;;;;;5.05;3.50;;;;;;;6.44;60.73;100699.47;4998884;28;20125;-73
2022/02/28 06:25:17;;;;;;;4.55;3.75;;;;;;;7.27;59.08;100702.09;4996411;28;20590;-73
2022/02/28 06:27:43;;;;;;;4.10;3.63;;;;;;;7.58;57.90;100705.44;4996316;28;20482;-73
2022/02/28 06:30:16;;;;;;;4.35;3.65;;;;;;;8.43;54.77;100707.38;4996549;28;20025;-75
2022/02/28 06:32:47;;;;;;;2.83;2.60;;;;;;;9.20;53.87;100707.94;5014386;28;20054;-73
2022/02/28 06:35:13;;;;;;;5.20;3.22;;;;;;;9.07;53.11;100709.03;4996314;28;20050;-74
2022/02/28 06:37:42;;;;;;;9.88;3.85;;;;;;;9.70;51.80;100726.41;4996279;28;20109;-74
2022/02/28 06:40:08;;;;;;;7.22;3.15;;;;;;;10.34;50.25;100734.16;4996215;28;20041;-73
2022/02/28 06:42:39;;;;;;;6.35;3.30;;;;;;;10.68;48.07;100726.44;4996780;28;20386;-74
2022/02/28 06:45:08;;;;;;;8.98;5.30;;;;;;;10.96;47.82;100727.31;4996779;28;20030;-73
2022/02/28 06:47:33;;;;;;;38.30;14.30;;;;;;;11.41;47.47;100725.44;4996284;28;20030;-73
2022/02/28 06:49:59;;;;;;;44.85;17.55;;;;;;;11.56;46.14;100721.88;4997002;28;20065;-73
2022/02/28 06:52:25;;;;;;;21.98;11.02;;;;;;;11.79;45.83;100720.09;4996453;28;20026;-73
2022/02/28 06:54:56;;;;;;;17.42;9.93;;;;;;;12.01;45.68;100723.47;4996111;28;20129;-73
2022/02/28 06:57:24;;;;;;;11.77;5.75;;;;;;;12.02;44.68;100719.50;4996485;28;20034;-73
2022/02/28 06:59:51;;;;;;;6.68;4.55;;;;;;;12.04;45.70;100717.19;4995898;28;20092;-73
2022/02/28 07:02:17;;;;;;;7.68;3.97;;;;;;;12.20;45.40;100715.22;4996060;28;20030;-73
2022/02/28 07:04:44;;;;;;;5.88;4.40;;;;;;;12.40;44.64;100723.63;4996010;28;20464;-74
2022/02/28 07:07:19;;;;;;;5.20;3.92;;;;;;;12.79;43.96;100710.59;4996067;28;20060;-74
2022/02/28 07:09:49;;;;;;;9.45;4.25;;;;;;;12.80;43.45;100709.41;5013702;28;20065;-74
2022/02/28 07:12:17;;;;;;;6.95;4.88;;;;;;;12.84;43.01;100724.28;4995749;28;20113;-73
2022/02/28 07:14:43;;;;;;;8.50;5.18;;;;;;;12.96;42.08;100732.50;4996093;28;20030;-73
2022/02/28 07:17:11;;;;;;;9.13;4.25;;;;;;;13.26;42.87;100727.19;4996534;28;20376;-74
2022/02/28 07:19:37;;;;;;;7.72;5.38;;;;;;;13.30;42.28;100730.06;5011671;28;20045;-74
2022/02/28 07:22:05;;;;;;;8.57;4.35;;;;;;;13.24;42.26;100735.13;4995873;28;20021;-74
2022/02/28 07:24:34;;;;;;;4.00;3.58;;;;;;;12.98;43.16;100741.31;4995812;28;20045;-74
2022/02/28 07:27:02;;;;;;;9.77;4.13;;;;;;;13.13;42.62;100730.47;4996425;28;20037;-74
2022/02/28 07:29:28;;;;;;;11.48;3.55;;;;;;;13.15;42.33;100733.69;4995867;28;20036;-74
2022/02/28 07:31:59;;;;;;;4.38;3.15;;;;;;;13.30;41.82;100730.06;4996443;28;20044;-74
2022/02/28 07:34:25;;;;;;;6.82;3.67;;;;;;;13.70;40.18;100726.06;5013261;28;20081;-74
2022/02/28 07:36:51;;;;;;;5.72;4.25;;;;;;;13.16;41.43;100729.75;5012088;28;20072;-74
2022/02/28 07:39:20;;;;;;;6.57;4.45;;;;;;;13.13;41.24;100736.06;4996163;28;20033;-74
2022/02/28 07:41:48;;;;;;;11.43;6.78;;;;;;;13.25;41.05;100738.72;4999289;28;20460;-74
2022/02/28 07:44:14;;;;;;;25.23;15.23;;;;;;;12.69;41.90;100755.84;5016715;28;20436;-74
2022/02/28 07:46:45;;;;;;;18.55;10.23;;;;;;;12.59;41.84;100746.84;4999429;28;20034;-75
2022/02/28 07:49:14;;;;;;;6.85;4.78;;;;;;;12.97;41.13;100755.66;4999848;28;20026;-74
2022/02/28 07:51:40;;;;;;;6.63;3.60;;;;;;;12.98;41.16;100748.91;5015636;28;20029;-74
2022/02/28 07:54:05;;;;;;;10.90;5.13;;;;;;;13.92;40.07;100755.22;4999342;28;20033;-75
2022/02/28 07:56:34;;;;;;;4.20;3.80;;;;;;;14.14;39.23;100757.22;4999605;28;20022;-75
2022/02/28 07:58:59;;;;;;;6.60;3.60;;;;;;;14.13;39.19;100762.00;5015721;28;20033;-75
2022/02/28 08:01:28;;;;;;;8.48;5.47;;;;;;;14.25;38.95;100765.78;4998792;28;20117;-75
2022/02/28 08:03:59;;;;;;;8.98;4.95;;;;;;;14.01;39.02;100766.97;4999268;28;20037;-75
2022/02/28 08:06:25;;;;;;;4.60;3.97;;;;;;;13.23;40.18;100753.06;4999335;28;20504;-73
2022/02/28 08:08:52;;;;;;;6.55;3.88;;;;;;;13.17;40.04;100767.69;4998763;28;20124;-74
2022/02/28 08:11:18;;;;;;;18.83;12.55;;;;;;;12.86;40.69;100769.38;4999104;28;20025;-75
2022/02/28 08:13:46;;;;;;;19.45;12.80;;;;;;;13.20;40.47;100764.94;4998937;28;20037;-75
2022/02/28 08:16:11;;;;;;;9.25;4.72;;;;;;;12.90;40.54;100767.50;4998745;28;20026;-74
2022/02/28 08:18:41;;;;;;;7.45;5.53;;;;;;;13.52;39.75;100767.63;4998559;28;20096;-74
2022/02/28 08:21:07;;;;;;;9.60;6.78;;;;;;;13.77;39.53;100760.53;5016543;28;20049;-74
2022/02/28 08:23:32;;;;;;;14.02;5.03;;;;;;;13.58;39.58;100768.94;4998651;28;20499;-74
2022/02/28 08:26:00;;;;;;;7.00;5.00;;;;;;;13.29;40.39;100773.97;4998467;28;20030;-74
2022/02/28 08:28:29;;;;;;;9.77;5.90;;;;;;;13.28;40.01;100772.34;4998529;28;20469;-74
2022/02/28 08:30:59;;;;;;;14.95;7.22;;;;;;;14.09;39.01;100777.91;4998500;28;20081;-74
2022/02/28 08:33:30;;;;;;;13.85;8.93;;;;;;;14.60;38.07;100786.03;5015642;28;20460;-74
2022/02/28 08:35:58;;;;;;;6.75;4.45;;;;;;;14.53;37.66;100773.88;4998546;28;20121;-74
2022/02/28 08:38:24;;;;;;;29.77;15.40;;;;;;;14.57;37.33;100774.75;4998600;28;20392;-74
2022/02/28 08:40:49;;;;;;;9.65;5.50;;;;;;;14.45;37.48;100784.13;4998607;28;20022;-74
2022/02/28 08:43:15;;;;;;;25.05;13.70;;;;;;;14.27;37.81;100778.22;4998214;28;20427;-74
2022/02/28 08:45:41;;;;;;;18.90;11.75;;;;;;;14.02;39.04;100788.19;5015753;28;20030;-74
2022/02/28 08:48:11;;;;;;;8.60;5.13;;;;;;;14.10;38.29;100790.72;4998099;28;20116;-73
2022/02/28 08:50:37;;;;;;;11.07;4.82;;;;;;;14.29;38.27;100786.25;4997720;28;20030;-74
2022/02/28 08:53:03;;;;;;;6.10;4.47;;;;;;;13.97;38.13;100780.91;4998099;28;20030;-74
2022/02/28 08:55:32;;;;;;;5.80;4.90;;;;;;;14.36;36.90;100791.97;4998034;28;20480;-74
2022/02/28 08:57:58;;;;;;;11.20;6.03;;;;;;;15.17;35.80;100797.25;4998195;28;20468;-74
2022/02/28 09:00:28;;;;;;;13.82;6.57;;;;;;;14.84;35.92;100795.19;4998541;28;20022;-74
2022/02/28 09:02:54;;;;;;;11.00;5.72;;;;;;;14.49;36.69;100796.25;4998667;28;20092;-74
2022/02/28 09:05:20;;;;;;;14.05;5.97;;;;;;;14.68;36.58;100795.34;5000402;28;20033;-73
2022/02/28 09:07:47;;;;;;;8.32;5.40;;;;;;;14.98;36.24;100808.59;5018708;28;20042;-74
2022/02/28 09:10:13;;;;;;;10.32;7.20;;;;;;;15.15;35.38;100799.66;4998867;28;20028;-74
2022/02/28 09:12:42;;;;;;;24.75;16.65;;;;;;;15.15;35.58;100796.84;4997815;28;20041;-74
2022/02/28 09:15:11;;;;;;;19.50;10.13;;;;;;;15.34;34.92;100804.28;4997899;28;20392;-74
2022/02/28 09:17:36;;;;;;;26.05;14.65;;;;;;;15.43;35.21;100816.03;5014925;28;20033;-74
2022/02/28 09:20:05;;;;;;;22.77;15.63;;;;;;;15.05;35.70;100803.91;4998125;28;20380;-74
2022/02/28 09:22:36;;;;;;;22.02;14.85;;;;;;;14.91;36.01;100812.09;4997476;28;20474;-74
2022/02/28 09:25:06;;;;;;;12.02;8.95;;;;;;;15.46;34.20;100810.47;4997444;28;20026;-74
2022/02/28 09:27:32;;;;;;;10.10;6.55;;;;;;;15.63;34.89;100814.72;4997319;28;20093;-74
2022/02/28 09:29:57;;;;;;;17.85;11.40;;;;;;;13.96;37.58;100814.84;4998359;28;20128;-74
2022/02/28 09:32:23;;;;;;;16.60;7.43;;;;;;;13.47;38.47;100807.88;4997384;28;20077;-73
2022/02/28 09:34:51;;;;;;;16.42;8.95;;;;;;;12.87;38.72;100821.28;4997628;28;20373;-74
2022/02/28 09:37:19;;;;;;;23.73;9.25;;;;;;;12.49;40.71;100813.56;4997232;28;20419;-74
2022/02/28 09:39:47;;;;;;;7.80;5.30;;;;;;;12.55;40.25;100814.91;5013473;28;20032;-74
2022/02/28 09:42:13;;;;;;;9.10;5.72;;;;;;;12.66;40.20;100823.56;4997570;28;20384;-74
2022/02/28 09:44:43;;;;;;;8.38;5.85;;;;;;;12.19;40.51;100811.19;4997170;28;20036;-74
2022/02/28 09:47:09;;;;;;;13.82;7.00;;;;;;;11.98;41.32;100807.84;4997326;28;20553;-74
2022/02/28 09:49:39;;;;;;;10.73;6.22;;;;;;;11.72;41.76;100819.47;4997198;28;20109;-74
2022/02/28 09:52:10;;;;;;;12.57;8.10;;;;;;;11.63;41.71;100819.63;4998413;28;20048;-72
2022/02/28 09:54:36;;;;;;;11.43;7.55;;;;;;;11.32;41.66;100811.13;4998092;28;20030;-72
2022/02/28 09:57:07;;;;;;;9.50;5.72;;;;;;;11.26;41.92;100816.13;4999674;28;20034;-73
2022/02/28 09:59:34;;;;;;;8.48;5.18;;;;;;;12.19;40.72;100818.75;4999577;28;20026;-73
2022/02/28 10:02:00;;;;;;;5.75;4.30;;;;;;;12.01;40.54;100812.72;4998895;28;20030;-73
2022/02/28 10:04:28;;;;;;;5.95;4.75;;;;;;;12.04;40.46;100814.81;4998524;28;20088;-73
2022/02/28 10:06:54;;;;;;;8.90;5.93;;;;;;;12.29;40.05;100815.44;4996658;28;20038;-74
2022/02/28 10:09:22;;;;;;;9.88;4.95;;;;;;;12.31;40.17;100813.13;4996659;28;20029;-74
2022/02/28 10:11:52;;;;;;;10.60;5.55;;;;;;;12.52;40.44;100812.84;4996739;28;20037;-74
2022/02/28 10:14:22;;;;;;;9.60;5.07;;;;;;;13.38;39.06;100821.28;4981469;28;20030;-74
2022/02/28 10:16:58;;;;;;;12.10;5.90;;;;;;;14.09;36.86;100808.69;5014580;28;20078;-76
2022/02/28 10:19:29;;;;;;;12.10;6.82;;;;;;;13.05;37.78;100814.13;4996605;28;20377;-73
2022/02/28 10:22:06;;;;;;;15.18;7.53;;;;;;;13.23;37.30;100814.56;4997100;28;20497;-74
2022/02/28 10:24:40;;;;;;;12.50;7.03;;;;;;;12.81;38.32;100808.75;4997140;28;20060;-72
2022/02/28 10:27:06;;;;;;;;;;;;;;;12.78;38.33;100815.91;4996840;28;20036;-72
2022/02/28 10:29:42;;;;;;;18.50;9.65;;;;;;;12.84;39.54;100810.84;4996460;28;19924;-74
2022/02/28 10:32:11;;;;;;;15.18;8.85;;;;;;;12.77;39.14;100816.25;4996654;28;20054;-72
2022/02/28 10:35:59;;;;;;;11.15;7.43;;;;;;;12.76;39.37;100814.63;4995815;28;20050;-72
2022/02/28 10:37:24;;;;;;;14.13;7.55;;;;;;;12.72;38.68;100813.72;5013585;28;20488;-72
2022/02/28 10:40:01;;;;;;;12.85;6.20;;;;;;;12.77;38.32;100816.25;4996645;28;20040;-72
2022/02/28 10:42:49;;;;;;;10.63;6.93;;;;;;;12.81;38.37;100819.94;4996273;28;20039;-72
2022/02/28 10:45:27;;;;;;;14.25;10.10;;;;;;;12.84;38.09;100819.22;4996267;28;20034;-72
2022/02/28 10:47:54;;;;;;;33.40;18.95;;;;;;;12.83;37.82;100818.38;4996171;28;20022;-73
2022/02/28 10:50:51;;;;;;;44.60;24.23;;;;;;;12.82;38.21;100821.53;5014451;28;20384;-75
2022/02/28 10:53:23;;;;;;;20.38;12.32;;;;;;;13.00;38.52;100810.81;4965354;28;20041;-76
2022/02/28 10:55:52;;;;;;;39.17;27.25;;;;;;;12.92;37.33;100812.63;5014259;28;20034;-74
2022/02/28 10:58:25;;;;;;;27.25;14.38;;;;;;;12.67;37.95;100809.22;5013570;28;20029;-74
2022/02/28 11:00:58;;;;;;;13.10;8.30;;;;;;;12.87;38.47;100803.72;4996214;28;20172;-74
2022/02/28 11:03:41;;;;;;;12.57;8.82;;;;;;;12.91;38.44;100807.41;4997239;28;20030;-75
2022/02/28 11:06:10;;;;;;;30.83;19.55;;;;;;;12.66;37.55;100793.66;5013944;28;20153;-73
2022/02/28 11:08:45;;;;;;;20.98;12.75;;;;;;;12.39;37.79;100789.00;4996754;28;20030;-76
2022/02/28 11:11:15;;;;;;;11.55;7.97;;;;;;;12.29;38.71;100781.97;4996220;28;20030;-77
2022/02/28 11:13:43;;;;;;;11.95;6.75;;;;;;;12.11;38.90;100787.09;5016577;28;20038;-77
2022/02/28 11:16:09;;;;;;;20.40;8.35;;;;;;;12.00;39.16;100786.81;5009169;28;20034;-75
2022/02/28 11:18:39;;;;;;;13.80;8.13;;;;;;;12.20;38.67;100779.38;4999809;28;20040;-70
2022/02/28 11:21:07;;;;;;;14.75;7.75;;;;;;;12.15;39.27;100776.03;4999665;28;20484;-75
2022/02/28 11:23:36;;;;;;;15.68;8.25;;;;;;;12.25;39.54;100778.25;5017679;28;20432;-75
2022/02/28 11:26:07;;;;;;;17.17;8.70;;;;;;;11.75;40.65;100779.72;4999862;28;20045;-73
2022/02/28 11:28:35;;;;;;;11.00;6.00;;;;;;;11.94;40.90;100781.88;4999932;28;20037;-73
2022/02/28 11:31:06;;;;;;;12.80;7.13;;;;;;;11.90;41.16;100767.81;4999510;28;20026;-74